Terminal Aerodrome Forecast
Issued by NWS

Home | Current Version | Previous Version | Text Only | Print | Product List | Glossary On
Versions: 1 2 3 4 5 6 7 8 9 10 11 12
000
FTUS45 KPSR 230520
TAFIPL
TAF
KIPL 230520Z 2306/2406 27015KT P6SM FEW060
     FM231300 27018G28KT P6SM BKN050 BKN060
     FM232200 29015KT P6SM SCT150=

USA.gov is the U.S. government's official web portal to all federal, state and local government web resources and services.